^^
Saratoga-Weather Station Historical Data
Daily Summary for April 10, 2020 Units:  English    Metric   Both
Daily Weekly Monthly Yearly Custom
  High: Low: Average:
Temperature: 72.7 °F 54.9 °F 62.8 °F
Dew Point: 63.5 °F 53.6 °F 58.1 °F
Humidity: 97% 64% 86%
Wind Speed: 8.9mph 0mph 1.2mph
Wind Gust: 16mph - -
Wind- - WSW
Pressure: 29.8 in 29.6 in -
Precipitation: 0.13 in    
Historical Graphs
 
 
Tabular Data for April 10, 2020
Time Temperature Dew Point Pressure Wind Wind Speed Wind Gust Humidity Rainfall Rate (Hourly) solar
00:03 55.8 °F 54.3 °F 29.8 in Calm     95% 0 in 0 W/m2
00:08 55.8 °F 54.3 °F 29.8 in Calm     95% 0 in 0 W/m2
00:13 55.8 °F 54.3 °F 29.8 in Calm     95% 0 in 0 W/m2
00:18 55.6 °F 54.1 °F 29.8 in Calm     95% 0 in 0 W/m2
00:23 55.6 °F 54.1 °F 29.8 in Calm     95% 0 in 0 W/m2
00:28 55.6 °F 54.1 °F 29.8 in Calm     95% 0 in 0 W/m2
00:33 55.6 °F 54.1 °F 29.8 in Calm     95% 0 in 0 W/m2
00:38 55.6 °F 54.1 °F 29.8 in Calm     95% 0 in 0 W/m2
00:43 55.6 °F 54.1 °F 29.7 in Calm     95% 0 in 0 W/m2
00:48 55.4 °F 54 °F 29.7 in Calm     95% 0 in 0 W/m2
00:53 55.4 °F 54 °F 29.7 in Calm     95% 0 in 0 W/m2
00:58 55.2 °F 53.8 °F 29.7 in Calm     95% 0 in 0 W/m2
01:03 55.2 °F 53.8 °F 29.7 in Calm     95% 0 in 0 W/m2
01:08 55.2 °F 53.8 °F 29.7 in Calm     95% 0 in 0 W/m2
01:13 55.2 °F 53.8 °F 29.7 in Calm     95% 0 in 0 W/m2
01:18 55 °F 53.6 °F 29.7 in Calm     95% 0 in 0 W/m2
01:23 55 °F 53.6 °F 29.7 in Calm     95% 0 in 0 W/m2
01:29 55 °F 53.6 °F 29.7 in Calm     95% 0 in 0 W/m2
01:34 55 °F 54 °F 29.7 in Calm     96% 0 in 0 W/m2
01:39 55 °F 54 °F 29.7 in Calm     96% 0 in 0 W/m2
01:44 55 °F 54 °F 29.7 in Calm     96% 0 in 0 W/m2
01:49 55.2 °F 54.1 °F 29.7 in Calm     96% 0.01 in 0 W/m2
01:54 55.2 °F 54.1 °F 29.7 in Calm     96% 0.01 in 0 W/m2
01:59 55.2 °F 54.1 °F 29.7 in Calm     96% 0.01 in 0 W/m2
02:04 55.2 °F 54.1 °F 29.7 in Calm     96% 0.01 in 0 W/m2
02:09 55.4 °F 54.3 °F 29.7 in Calm     96% 0.01 in 0 W/m2
02:14 55.2 °F 54.1 °F 29.7 in Calm     96% 0.01 in 0 W/m2
02:19 55.2 °F 54.1 °F 29.7 in Calm     96% 0.01 in 0 W/m2
02:24 55.2 °F 54.1 °F 29.7 in Calm     96% 0.01 in 0 W/m2
02:29 55.2 °F 54.1 °F 29.7 in Calm     96% 0.01 in 0 W/m2
02:34 55.2 °F 54.1 °F 29.7 in SSE 0.9 mph 2 mph 96% 0.01 in 0 W/m2
02:39 55.2 °F 54.1 °F 29.7 in SSE 2 mph 2 mph 96% 0.01 in 0 W/m2
02:44 55 °F 54 °F 29.7 in SW 0.9 mph 2 mph 96% 0.01 in 0 W/m2
02:49 55.2 °F 54.1 °F 29.7 in Calm     96% 0 in 0 W/m2
02:54 55.2 °F 54.1 °F 29.7 in Calm     96% 0 in 0 W/m2
02:59 55.2 °F 54.1 °F 29.7 in Calm     96% 0.01 in 0 W/m2
03:04 55.2 °F 54.1 °F 29.7 in Calm   1 mph 96% 0.01 in 0 W/m2
03:09 55.2 °F 54.1 °F 29.7 in Calm     96% 0.01 in 0 W/m2
03:14 55.2 °F 54.1 °F 29.7 in Calm   1 mph 96% 0.01 in 0 W/m2
03:19 55.2 °F 54.1 °F 29.7 in Calm     96% 0.01 in 0 W/m2
03:24 55.2 °F 54.1 °F 29.7 in Calm     96% 0.01 in 0 W/m2
03:29 55.2 °F 54.1 °F 29.7 in Calm     96% 0.01 in 0 W/m2
03:34 55.2 °F 54.1 °F 29.7 in Calm     96% 0.01 in 0 W/m2
03:39 55.2 °F 54.1 °F 29.7 in Calm     96% 0.01 in 0 W/m2
03:44 55.2 °F 54.1 °F 29.7 in Calm     96% 0.01 in 0 W/m2
03:49 55 °F 54 °F 29.7 in Calm     96% 0.01 in 0 W/m2
03:54 55 °F 54 °F 29.7 in Calm     96% 0.01 in 0 W/m2
03:59 55 °F 54 °F 29.7 in Calm     96% 0 in 0 W/m2
04:04 55 °F 54 °F 29.7 in Calm     96% 0 in 0 W/m2
04:09 55 °F 54 °F 29.7 in Calm     96% 0 in 0 W/m2
04:14 55 °F 54 °F 29.7 in Calm     96% 0 in 0 W/m2
04:19 55 °F 54 °F 29.7 in Calm     96% 0 in 0 W/m2
04:25 55 °F 54 °F 29.7 in Calm     96% 0 in 0 W/m2
04:30 55 °F 54 °F 29.7 in Calm     96% 0 in 0 W/m2
04:35 55.2 °F 54.3 °F 29.7 in Calm     97% 0 in 0 W/m2
04:40 55.2 °F 54.1 °F 29.7 in Calm     96% 0 in 0 W/m2
04:45 55.2 °F 54.1 °F 29.7 in Calm     96% 0 in 0 W/m2
04:50 55.2 °F 54.1 °F 29.7 in Calm     96% 0 in 0 W/m2
04:55 55 °F 54.1 °F 29.7 in Calm     97% 0 in 0 W/m2
05:00 55.2 °F 54.1 °F 29.7 in Calm     96% 0 in 0 W/m2
05:05 55 °F 54.1 °F 29.7 in Calm     97% 0 in 0 W/m2
05:10 55 °F 54.1 °F 29.7 in Calm     97% 0 in 0 W/m2
05:15 55 °F 54.1 °F 29.7 in Calm     97% 0 in 0 W/m2
05:20 55 °F 54.1 °F 29.7 in Calm     97% 0.01 in 0 W/m2
05:25 55 °F 54.1 °F 29.7 in Calm     97% 0.01 in 0 W/m2
05:30 55 °F 54.1 °F 29.7 in Calm     97% 0.02 in 0 W/m2
05:35 54.9 °F 54 °F 29.7 in Calm     97% 0.02 in 0 W/m2
05:40 54.9 °F 54 °F 29.7 in Calm     97% 0.03 in 0 W/m2
05:45 54.9 °F 54 °F 29.7 in Calm     97% 0.05 in 0 W/m2
05:50 54.9 °F 54 °F 29.7 in Calm     97% 0.06 in 0 W/m2
05:55 54.9 °F 54 °F 29.7 in Calm     97% 0.06 in 0 W/m2
06:00 54.9 °F 54 °F 29.7 in SW 0.9 mph 2 mph 97% 0.07 in 0 W/m2
06:05 54.9 °F 54 °F 29.7 in Calm     97% 0.09 in 0 W/m2
06:10 54.9 °F 54 °F 29.7 in Calm   1 mph 97% 0.09 in 0 W/m2
06:15 54.9 °F 54 °F 29.7 in Calm     97% 0.09 in 0 W/m2
06:20 54.9 °F 54 °F 29.7 in SW 2 mph 2 mph 97% 0.09 in 0 W/m2
06:25 55 °F 54.1 °F 29.7 in Calm     97% 0.09 in 0 W/m2
06:30 55 °F 54.1 °F 29.7 in Calm   2 mph 97% 0.09 in 0 W/m2
06:35 54.9 °F 54 °F 29.7 in Calm     97% 0.08 in 0 W/m2
06:40 54.9 °F 54 °F 29.7 in Calm     97% 0.07 in 0 W/m2
06:45 54.9 °F 54 °F 29.7 in SW 0.9 mph 2 mph 97% 0.06 in 0 W/m2
06:50 54.9 °F 54 °F 29.7 in Calm     97% 0.05 in 0 W/m2
06:55 54.9 °F 54 °F 29.7 in Calm     97% 0.04 in 0 W/m2
07:00 54.9 °F 54 °F 29.7 in Calm     97% 0.03 in 5 W/m2
07:05 54.9 °F 54 °F 29.7 in Calm     97% 0.02 in 11 W/m2
07:10 54.9 °F 54 °F 29.7 in Calm     97% 0.02 in 18 W/m2
07:15 54.9 °F 54 °F 29.7 in Calm     97% 0.01 in 26 W/m2
07:20 54.9 °F 54 °F 29.7 in Calm     97% 0 in 32 W/m2
07:25 54.9 °F 54 °F 29.7 in Calm     97% 0 in 51 W/m2
07:30 55 °F 54.1 °F 29.7 in Calm     97% 0 in 60 W/m2
07:35 55 °F 54.1 °F 29.7 in Calm     97% 0 in 69 W/m2
07:40 55 °F 54.1 °F 29.7 in Calm     97% 0 in 84 W/m2
07:45 55.4 °F 54.5 °F 29.7 in SW 0.9 mph 2 mph 97% 0 in 158 W/m2
07:50 55.6 °F 54.7 °F 29.7 in Calm   1 mph 97% 0 in 120 W/m2
07:55 55.8 °F 54.9 °F 29.7 in Calm   1 mph 97% 0.01 in 84 W/m2
08:00 55.8 °F 54.9 °F 29.7 in East 0.9 mph 2 mph 97% 0.01 in 93 W/m2
08:05 55.8 °F 54.9 °F 29.7 in Calm   2 mph 97% 0.01 in 111 W/m2
08:10 55.9 °F 55 °F 29.7 in Calm   2 mph 97% 0.01 in 128 W/m2
08:15 55.9 °F 55 °F 29.7 in NE 0.9 mph 3 mph 97% 0.01 in 114 W/m2
08:20 56.1 °F 55.2 °F 29.7 in Calm     97% 0.01 in 137 W/m2
08:26 56.1 °F 55.2 °F 29.7 in Calm   3 mph 97% 0.01 in 202 W/m2
08:31 56.5 °F 55.6 °F 29.7 in Calm     97% 0.01 in 411 W/m2
08:36 56.8 °F 55.9 °F 29.7 in NNE 2 mph 3 mph 97% 0.01 in 174 W/m2
08:41 56.7 °F 55.8 °F 29.7 in East 0.9 mph 2 mph 97% 0.01 in 188 W/m2
08:46 56.8 °F 55.9 °F 29.7 in Calm   1 mph 97% 0.01 in 192 W/m2
08:51 57 °F 56.1 °F 29.7 in ESE 0.9 mph 4 mph 97% 0.01 in 176 W/m2
08:56 57.2 °F 56.3 °F 29.7 in ESE 0.9 mph 2 mph 97% 0 in 153 W/m2
09:01 57.6 °F 56.7 °F 29.7 in Calm   4 mph 97% 0 in 144 W/m2
09:06 57.4 °F 56.3 °F 29.7 in Calm     96% 0 in 160 W/m2
09:11 57.6 °F 56.5 °F 29.7 in NE 0.9 mph 3 mph 96% 0 in 158 W/m2
09:16 57.6 °F 56.5 °F 29.7 in Calm     96% 0 in 139 W/m2
09:21 57.6 °F 56.1 °F 29.7 in Calm   3 mph 95% 0 in 118 W/m2
09:26 57.7 °F 56.3 °F 29.7 in East 2 mph 2 mph 95% 0 in 105 W/m2
09:31 57.7 °F 56.3 °F 29.7 in Calm     95% 0 in 69 W/m2
09:36 57.9 °F 56.5 °F 29.7 in Calm     95% 0 in 83 W/m2
09:42 58.3 °F 56.8 °F 29.7 in Calm   2 mph 95% 0 in 512 W/m2
09:47 58.8 °F 57.4 °F 29.7 in ESE 2 mph 3 mph 95% 0 in 652 W/m2
09:52 59.7 °F 58.3 °F 29.7 in ESE 2 mph 3 mph 95% 0 in 482 W/m2
09:57 60.4 °F 58.5 °F 29.7 in ENE 0.9 mph 3 mph 93% 0 in 330 W/m2
10:02 60.6 °F 58.3 °F 29.7 in East 2 mph 2 mph 92% 0 in 236 W/m2
10:07 60.8 °F 58.5 °F 29.7 in SE 0.9 mph 3 mph 92% 0 in 209 W/m2
10:12 61 °F 58.6 °F 29.7 in Calm   1 mph 92% 0 in 199 W/m2
10:17 61 °F 58.3 °F 29.7 in Calm   1 mph 91% 0 in 199 W/m2
10:22 61 °F 58.6 °F 29.7 in ESE 0.9 mph 2 mph 92% 0 in 209 W/m2
10:27 61.2 °F 58.8 °F 29.7 in East 0.9 mph 1 mph 92% 0 in 223 W/m2
10:32 61.3 °F 59 °F 29.7 in Calm   1 mph 92% 0 in 216 W/m2
10:37 61.3 °F 58.6 °F 29.7 in Calm   2 mph 91% 0 in 223 W/m2
10:42 61.5 °F 58.8 °F 29.7 in East 2 mph 4 mph 91% 0 in 309 W/m2
10:47 61.9 °F 59.2 °F 29.7 in Calm   3 mph 91% 0 in 780 W/m2
10:52 62.6 °F 59.4 °F 29.7 in East 4.9 mph 5 mph 89% 0 in 589 W/m2
10:57 63.1 °F 59.9 °F 29.7 in Calm   2 mph 89% 0 in 657 W/m2
11:02 63.5 °F 60.3 °F 29.7 in Calm   1 mph 89% 0 in 427 W/m2
11:08 63.9 °F 60.6 °F 29.7 in Calm   1 mph 89% 0 in 353 W/m2
11:13 64.2 °F 60.6 °F 29.7 in Calm     88% 0 in 394 W/m2
11:18 64.6 °F 60.6 °F 29.7 in East 2 mph 3 mph 87% 0 in 531 W/m2
11:23 64.8 °F 60.4 °F 29.7 in ESE 0.9 mph 4 mph 86% 0 in 366 W/m2
11:28 65.1 °F 61.5 °F 29.7 in Calm   3 mph 88% 0 in 628 W/m2
11:33 65.5 °F 61.2 °F 29.7 in Calm   1 mph 86% 0 in 487 W/m2
11:38 65.8 °F 61.2 °F 29.7 in Calm   3 mph 85% 0 in 362 W/m2
11:43 66.4 °F 61.7 °F 29.7 in Calm   1 mph 85% 0 in 510 W/m2
11:48 66.7 °F 62.1 °F 29.7 in NW 2 mph 2 mph 85% 0 in 482 W/m2
11:53 66.9 °F 61.9 °F 29.7 in WNW 2 mph 3 mph 84% 0 in 649 W/m2
11:58 67.3 °F 61.9 °F 29.7 in Calm   2 mph 83% 0 in 459 W/m2
12:03 68 °F 62.6 °F 29.7 in SE 0.9 mph 4 mph 83% 0 in 659 W/m2
12:08 68.9 °F 63.5 °F 29.7 in NE 2.9 mph 4 mph 83% 0 in 1146 W/m2
12:13 69.3 °F 62.8 °F 29.7 in SE 0.9 mph 4 mph 80% 0 in 436 W/m2
12:18 69.3 °F 62.8 °F 29.7 in ENE 0.9 mph 3 mph 80% 0 in 387 W/m2
12:23 69.3 °F 62.4 °F 29.7 in WNW 0.9 mph 6 mph 79% 0 in 367 W/m2
12:28 69.3 °F 62.1 °F 29.7 in SE 2 mph 5 mph 78% 0 in 476 W/m2
12:33 69.3 °F 61.7 °F 29.7 in NW 2 mph 4 mph 77% 0 in 424 W/m2
12:38 69.3 °F 62.1 °F 29.7 in NNW 2 mph 3 mph 78% 0 in 469 W/m2
12:43 69.3 °F 62.1 °F 29.7 in NE 0.9 mph 3 mph 78% 0 in 466 W/m2
12:48 69.4 °F 62.6 °F 29.7 in Calm   1 mph 79% 0 in 698 W/m2
12:53 69.8 °F 63 °F 29.7 in Calm   3 mph 79% 0 in 320 W/m2
12:58 70 °F 62.8 °F 29.7 in WNW 2.9 mph 4 mph 78% 0 in 478 W/m2
13:03 69.4 °F 61.5 °F 29.7 in NNW 0.9 mph 2 mph 76% 0 in 325 W/m2
13:08 69.6 °F 62.1 °F 29.7 in North 2 mph 2 mph 77% 0 in 316 W/m2
13:13 70 °F 62.1 °F 29.7 in NW 0.9 mph 3 mph 76% 0 in 882 W/m2
13:18 70.5 °F 63 °F 29.7 in SE 0.9 mph 3 mph 77% 0 in 919 W/m2
13:23 70.9 °F 63 °F 29.7 in NNE 4 mph 6 mph 76% 0 in 322 W/m2
13:28 71.1 °F 62.4 °F 29.7 in East 8.1 mph 8 mph 74% 0 in 965 W/m2
13:33 71.1 °F 61.5 °F 29.7 in West 2 mph 3 mph 72% 0 in 330 W/m2
13:38 71.2 °F 61.7 °F 29.7 in NW 2 mph 3 mph 72% 0 in 330 W/m2
13:43 71.4 °F 62.2 °F 29.7 in WSW 2.9 mph 9 mph 73% 0 in 990 W/m2
13:48 71.4 °F 61.9 °F 29.7 in East 4.9 mph 8 mph 72% 0 in 619 W/m2
13:53 71.2 °F 61.7 °F 29.7 in NNW 2 mph 4 mph 72% 0 in 378 W/m2
13:58 71.4 °F 61.9 °F 29.6 in NW 2.9 mph 4 mph 72% 0 in 958 W/m2
14:03 71.8 °F 61 °F 29.6 in West 2 mph 8 mph 69% 0 in 858 W/m2
14:08 72.3 °F 61.5 °F 29.6 in WNW 2 mph 13 mph 69% 0 in 868 W/m2
14:13 72.7 °F 62.2 °F 29.6 in West 8.1 mph 9 mph 70% 0 in 881 W/m2
14:19 72.7 °F 61.2 °F 29.6 in WNW 2 mph 13 mph 67% 0 in 309 W/m2
14:24 72.7 °F 61.5 °F 29.6 in WNW 4 mph 9 mph 68% 0 in 761 W/m2
14:29 72.5 °F 61.3 °F 29.6 in West 8.1 mph 8 mph 68% 0 in 761 W/m2
14:34 72.7 °F 61.2 °F 29.6 in South 2 mph 9 mph 67% 0 in 898 W/m2
14:39 72.7 °F 60.6 °F 29.6 in West 2 mph 4 mph 66% 0 in 404 W/m2
14:44 72.7 °F 61.2 °F 29.6 in WNW 4 mph 8 mph 67% 0 in 900 W/m2
14:49 72.7 °F 61.5 °F 29.6 in West 6.9 mph 9 mph 68% 0 in 211 W/m2
14:54 72.1 °F 61.3 °F 29.6 in West 4 mph 11 mph 69% 0 in 269 W/m2
14:59 71.4 °F 60.8 °F 29.6 in WNW 6.9 mph 16 mph 69% 0 in 394 W/m2
15:04 70.2 °F 60.3 °F 29.6 in WNW 8.1 mph 10 mph 71% 0 in 211 W/m2
15:09 69.1 °F 59.7 °F 29.6 in West 4 mph 16 mph 72% 0 in 199 W/m2
15:14 68.5 °F 59.9 °F 29.6 in West 2 mph 4 mph 74% 0 in 193 W/m2
15:19 68.2 °F 59.9 °F 29.6 in WNW 4 mph 8 mph 75% 0 in 204 W/m2
15:24 67.3 °F 59.5 °F 29.6 in WSW 6.9 mph 8 mph 76% 0 in 186 W/m2
15:29 66.7 °F 60.1 °F 29.6 in WNW 4 mph 7 mph 79% 0 in 183 W/m2
15:34 66.6 °F 60.3 °F 29.6 in WNW 2.9 mph 8 mph 80% 0.01 in 320 W/m2
15:39 66.4 °F 60.8 °F 29.6 in NW 2 mph 7 mph 82% 0.01 in 301 W/m2
15:44 66.4 °F 60.4 °F 29.6 in WSW 2.9 mph 7 mph 81% 0.01 in 376 W/m2
15:49 66.6 °F 60.3 °F 29.6 in WNW 4 mph 7 mph 80% 0.01 in 390 W/m2
15:54 66.9 °F 60.6 °F 29.6 in WNW 4 mph 7 mph 80% 0.01 in 388 W/m2
15:59 67.6 °F 59.7 °F 29.6 in WNW 4 mph 8 mph 76% 0.01 in 380 W/m2
16:04 68.2 °F 58.5 °F 29.6 in WSW 4.9 mph 6 mph 71% 0.01 in 383 W/m2
16:09 68.5 °F 59.2 °F 29.6 in NNW 2.9 mph 5 mph 72% 0.01 in 380 W/m2
16:14 68.9 °F 59.5 °F 29.6 in NW 2 mph 7 mph 72% 0.01 in 396 W/m2
16:19 69.3 °F 60.3 °F 29.6 in NW 2 mph 4 mph 73% 0.01 in 373 W/m2
16:24 69.3 °F 59.9 °F 29.6 in NW 2.9 mph 6 mph 72% 0.01 in 353 W/m2
16:29 69.4 °F 60.8 °F 29.6 in West 2.9 mph 4 mph 74% 0.01 in 394 W/m2
16:34 69.6 °F 61 °F 29.6 in West 0.9 mph 4 mph 74% 0 in 424 W/m2
16:39 70.2 °F 60.6 °F 29.6 in West 2.9 mph 5 mph 72% 0 in 401 W/m2
16:44 70.3 °F 60.8 °F 29.6 in WNW 2.9 mph 4 mph 72% 0 in 418 W/m2
16:49 70.3 °F 60.8 °F 29.6 in WNW 2 mph 10 mph 72% 0 in 448 W/m2
16:54 70.7 °F 60.8 °F 29.6 in NW 8.9 mph 9 mph 71% 0 in 573 W/m2
16:59 71.2 °F 60.6 °F 29.6 in WNW 4 mph 10 mph 69% 0 in 559 W/m2
17:04 71.4 °F 59.9 °F 29.6 in WNW 2 mph 7 mph 67% 0 in 494 W/m2
17:10 71.8 °F 60.3 °F 29.6 in West 2 mph 9 mph 67% 0 in 482 W/m2
17:15 71.8 °F 60.6 °F 29.6 in NW 8.1 mph 8 mph 68% 0 in 439 W/m2
17:20 71.8 °F 61.5 °F 29.6 in SW 2.9 mph 6 mph 70% 0 in 457 W/m2
17:25 71.4 °F 60.3 °F 29.6 in West 8.1 mph 8 mph 68% 0 in 468 W/m2
17:30 71.2 °F 61 °F 29.6 in WNW 2.9 mph 6 mph 70% 0 in 497 W/m2
17:35 71.8 °F 61.5 °F 29.6 in North 2 mph 3 mph 70% 0 in 475 W/m2
17:40 72.1 °F 61.3 °F 29.6 in WSW 4.9 mph 5 mph 69% 0 in 471 W/m2
17:45 72.1 °F 61.9 °F 29.6 in West 2 mph 4 mph 70% 0 in 452 W/m2
17:50 72.3 °F 61.5 °F 29.6 in NNW 4 mph 6 mph 69% 0 in 418 W/m2
17:55 72.5 °F 61.7 °F 29.6 in North 2 mph 7 mph 69% 0 in 364 W/m2
18:00 72.1 °F 61.3 °F 29.6 in WNW 4 mph 4 mph 69% 0 in 309 W/m2
18:06 72 °F 60.8 °F 29.6 in NW 2 mph 6 mph 68% 0 in 281 W/m2
18:11 71.8 °F 61 °F 29.6 in West 2 mph 3 mph 69% 0 in 287 W/m2
18:16 71.8 °F 60.6 °F 29.6 in WSW 4 mph 8 mph 68% 0 in 308 W/m2
18:21 71.6 °F 60.4 °F 29.6 in WNW 2 mph 3 mph 68% 0 in 350 W/m2
18:26 72 °F 60.4 °F 29.6 in West 2.9 mph 7 mph 67% 0 in 353 W/m2
18:31 72 °F 60.8 °F 29.6 in SW 2 mph 5 mph 68% 0 in 316 W/m2
18:36 72 °F 61.2 °F 29.6 in WSW 4 mph 4 mph 69% 0 in 276 W/m2
18:41 72.1 °F 60.1 °F 29.6 in WNW 0.9 mph 6 mph 66% 0 in 329 W/m2
18:46 72.3 °F 60.8 °F 29.6 in NW 2 mph 6 mph 67% 0 in 285 W/m2
18:51 72.3 °F 60.3 °F 29.6 in ENE 2.9 mph 4 mph 66% 0 in 113 W/m2
18:56 72.1 °F 59.4 °F 29.6 in NNW 2.9 mph 4 mph 64% 0 in 86 W/m2
19:01 71.6 °F 59.2 °F 29.6 in NW 2 mph 4 mph 65% 0 in 76 W/m2
19:06 71.1 °F 59.2 °F 29.6 in WNW 0.9 mph 2 mph 66% 0 in 77 W/m2
19:11 70.7 °F 58.8 °F 29.6 in Calm   3 mph 66% 0 in 76 W/m2
19:16 70.5 °F 59.4 °F 29.6 in North 2 mph 3 mph 68% 0 in 120 W/m2
19:21 70.5 °F 59 °F 29.6 in NW 0.9 mph 2 mph 67% 0 in 156 W/m2
19:26 70.9 °F 59.4 °F 29.6 in WNW 0.9 mph 5 mph 67% 0 in 128 W/m2
19:31 70.9 °F 60.3 °F 29.6 in WNW 0.9 mph 3 mph 69% 0 in 153 W/m2
19:36 70.7 °F 60.1 °F 29.6 in WNW 4 mph 6 mph 69% 0 in 141 W/m2
19:41 70.5 °F 60.3 °F 29.6 in WNW 2.9 mph 4 mph 70% 0 in 102 W/m2
19:47 70.2 °F 60.3 °F 29.6 in NW 2 mph 3 mph 71% 0 in 60 W/m2
19:52 69.8 °F 60.4 °F 29.6 in WNW 0.9 mph 2 mph 72% 0 in 42 W/m2
19:57 69.4 °F 60.4 °F 29.6 in NNW 2 mph 3 mph 73% 0 in 69 W/m2
20:02 69.4 °F 60.8 °F 29.6 in Calm   2 mph 74% 0 in 81 W/m2
20:07 69.4 °F 60.8 °F 29.6 in NNW 0.9 mph 3 mph 74% 0 in 54 W/m2
20:12 69.3 °F 60.6 °F 29.6 in Calm   4 mph 74% 0 in 58 W/m2
20:17 69.3 °F 61 °F 29.6 in WNW 2 mph 2 mph 75% 0 in 53 W/m2
20:22 68.9 °F 61 °F 29.6 in NNW 2 mph 3 mph 76% 0 in 47 W/m2
20:27 68.5 °F 61 °F 29.6 in NNW 2 mph 3 mph 77% 0 in 40 W/m2
20:32 68.4 °F 60.8 °F 29.6 in Calm   1 mph 77% 0 in 35 W/m2
20:37 68.2 °F 61.3 °F 29.6 in Calm   3 mph 79% 0 in 26 W/m2
20:42 67.8 °F 61.3 °F 29.6 in Calm     80% 0 in 14 W/m2
20:47 67.3 °F 61.2 °F 29.6 in Calm     81% 0 in 9 W/m2
20:52 66.7 °F 61 °F 29.6 in Calm     82% 0 in 7 W/m2
20:57 66.6 °F 61.2 °F 29.6 in Calm     83% 0 in 5 W/m2
21:02 66 °F 60.6 °F 29.6 in Calm     83% 0 in 0 W/m2
21:07 65.7 °F 60.6 °F 29.6 in Calm     84% 0 in 0 W/m2
21:12 65.5 °F 60.8 °F 29.6 in Calm     85% 0 in 0 W/m2
21:17 65.1 °F 60.4 °F 29.6 in Calm     85% 0 in 0 W/m2
21:22 64.9 °F 60.6 °F 29.6 in Calm     86% 0 in 0 W/m2
21:27 64.6 °F 60.3 °F 29.6 in Calm     86% 0 in 0 W/m2
21:32 64.4 °F 60.4 °F 29.6 in Calm     87% 0 in 0 W/m2
21:37 64.4 °F 60.4 °F 29.6 in Calm     87% 0 in 0 W/m2
21:43 64.2 °F 60.6 °F 29.6 in Calm     88% 0 in 0 W/m2
21:48 64.4 °F 60.8 °F 29.6 in WNW 0.9 mph 2 mph 88% 0 in 0 W/m2
21:53 64.6 °F 60.6 °F 29.6 in WNW 2 mph 3 mph 87% 0 in 0 W/m2
21:58 64.8 °F 60.8 °F 29.6 in WNW 0.9 mph 2 mph 87% 0 in 0 W/m2
22:03 64.8 °F 60.8 °F 29.6 in NW 0.9 mph 3 mph 87% 0 in 0 W/m2
22:08 64.8 °F 60.8 °F 29.6 in NW 0.9 mph 2 mph 87% 0 in 0 W/m2
22:13 64.8 °F 60.8 °F 29.6 in NW 2 mph 4 mph 87% 0 in 0 W/m2
22:18 64.6 °F 60.6 °F 29.6 in WNW 0.9 mph 3 mph 87% 0 in 0 W/m2
22:23 64.6 °F 60.6 °F 29.6 in NW 0.9 mph 2 mph 87% 0 in 0 W/m2
22:28 64.6 °F 61 °F 29.6 in Calm   3 mph 88% 0 in 0 W/m2
22:33 64.4 °F 60.8 °F 29.6 in South 0.9 mph 1 mph 88% 0 in 0 W/m2
22:38 64.2 °F 60.6 °F 29.6 in WNW 0.9 mph 2 mph 88% 0 in 0 W/m2
22:43 64 °F 60.4 °F 29.6 in Calm   2 mph 88% 0 in 0 W/m2
22:48 63.9 °F 60.6 °F 29.6 in NNW 0.9 mph 2 mph 89% 0 in 0 W/m2
22:53 63.9 °F 60.6 °F 29.6 in NW 0.9 mph 3 mph 89% 0 in 0 W/m2
22:58 63.9 °F 60.6 °F 29.6 in WNW 2 mph 3 mph 89% 0 in 0 W/m2
23:03 63.7 °F 60.4 °F 29.6 in Calm   3 mph 89% 0 in 0 W/m2
23:08 63.7 °F 60.4 °F 29.6 in NNW 0.9 mph 3 mph 89% 0 in 0 W/m2
23:13 63.5 °F 59.9 °F 29.6 in West 0.9 mph 2 mph 88% 0 in 0 W/m2
23:18 63.3 °F 59.7 °F 29.6 in Calm   3 mph 88% 0 in 0 W/m2
23:23 63.1 °F 59.5 °F 29.6 in Calm   2 mph 88% 0 in 0 W/m2
23:28 63.1 °F 59.5 °F 29.6 in West 2 mph 4 mph 88% 0 in 0 W/m2
23:33 63.1 °F 59.5 °F 29.6 in Calm   6 mph 88% 0 in 0 W/m2
23:38 63.1 °F 59.5 °F 29.6 in West 4 mph 4 mph 88% 0 in 0 W/m2
23:43 63.1 °F 59.5 °F 29.6 in WNW 2 mph 3 mph 88% 0 in 0 W/m2
23:48 63 °F 59.4 °F 29.6 in WNW 0.9 mph 2 mph 88% 0 in 0 W/m2
23:53 63 °F 59.4 °F 29.6 in NNW 4 mph 6 mph 88% 0 in 0 W/m2
23:58 62.8 °F 59.2 °F 29.6 in NE 4 mph 4 mph 88% 0 in 0 W/m2
Juneau County Weather
Compliments of Weather Underground - 4 mb